createdAt,value
2018-06-20T00:01:32.897Z,5.90
2018-06-20T00:04:00.834Z,5.80
2018-06-20T00:06:31.137Z,5.80
2018-06-20T00:08:59.404Z,6.72
2018-06-20T00:11:27.659Z,5.17
2018-06-20T00:13:55.682Z,6.00
2018-06-20T00:16:24.232Z,6.80
2018-06-20T00:21:27.119Z,7.47
2018-06-20T00:23:55.879Z,7.70
2018-06-20T00:26:28.565Z,6.92
2018-06-20T00:28:56.844Z,7.57
2018-06-20T00:31:25.068Z,6.30
2018-06-20T00:33:53.259Z,7.17
2018-06-20T00:36:21.823Z,5.83
2018-06-20T00:38:50.018Z,5.80
2018-06-20T00:41:21.528Z,6.43
2018-06-20T00:43:49.714Z,6.30
2018-06-20T00:46:17.949Z,6.08
2018-06-20T00:48:46.410Z,5.33
2018-06-20T00:51:14.616Z,5.83
2018-06-20T00:53:42.846Z,5.75
2018-06-20T00:56:20.924Z,6.93
2018-06-20T00:58:49.258Z,7.30
2018-06-20T01:01:17.479Z,6.67
2018-06-20T01:03:45.916Z,5.93
2018-06-20T01:06:14.324Z,6.77
2018-06-20T01:08:42.593Z,6.80
2018-06-20T01:11:15.560Z,7.28
2018-06-20T01:13:44.032Z,7.85
2018-06-20T01:16:12.739Z,7.33
2018-06-20T01:18:41.629Z,8.00
2018-06-20T01:21:09.847Z,7.27
2018-06-20T01:23:38.037Z,7.23
2018-06-20T01:26:06.240Z,8.47
2018-06-20T01:28:34.453Z,8.70
2018-06-20T01:31:02.395Z,8.90
2018-06-20T01:33:30.648Z,8.10
2018-06-20T01:35:58.821Z,8.83
2018-06-20T01:38:27.007Z,9.98
2018-06-20T01:40:55.256Z,8.20
2018-06-20T01:43:23.489Z,8.50
2018-06-20T01:45:51.731Z,8.20
2018-06-20T01:48:19.943Z,8.20
2018-06-20T01:50:48.124Z,8.50
2018-06-20T01:53:16.347Z,9.35
2018-06-20T01:55:44.546Z,9.00
2018-06-20T01:58:12.731Z,8.35
2018-06-20T02:00:40.896Z,10.07
2018-06-20T02:03:09.095Z,8.58
2018-06-20T02:05:37.323Z,8.73
2018-06-20T02:08:05.344Z,8.90
2018-06-20T02:10:33.611Z,8.63
2018-06-20T02:13:05.790Z,9.63
2018-06-20T02:15:34.062Z,9.13
2018-06-20T02:18:02.268Z,10.10
2018-06-20T02:20:30.338Z,10.53
2018-06-20T02:22:58.555Z,9.63
2018-06-20T02:25:26.810Z,8.80
2018-06-20T02:27:55.554Z,8.90
2018-06-20T02:30:23.751Z,8.70
2018-06-20T02:32:51.984Z,9.23
2018-06-20T02:35:19.965Z,9.43
2018-06-20T02:37:48.188Z,8.17
2018-06-20T02:40:16.380Z,9.13
2018-06-20T02:42:49.718Z,9.40
2018-06-20T02:45:17.893Z,9.07
2018-06-20T02:47:46.080Z,9.63
2018-06-20T02:50:14.695Z,8.37
2018-06-20T02:52:42.980Z,7.40
2018-06-20T02:55:11.080Z,7.70
2018-06-20T02:57:39.269Z,9.80
2018-06-20T03:00:08.059Z,8.07
2018-06-20T03:02:36.304Z,9.47
2018-06-20T03:05:05.371Z,8.84
2018-06-20T03:07:33.556Z,9.87
2018-06-20T03:10:02.171Z,9.40
2018-06-20T03:12:30.364Z,9.20
2018-06-20T03:15:01.436Z,10.37
2018-06-20T03:17:30.111Z,9.08
2018-06-20T03:19:58.334Z,8.75
2018-06-20T03:22:26.544Z,9.23
2018-06-20T03:24:54.762Z,9.38
2018-06-20T03:27:22.717Z,8.73
2018-06-20T03:29:50.902Z,9.80
2018-06-20T03:32:19.670Z,9.28
2018-06-20T03:34:48.380Z,9.10
2018-06-20T03:37:16.604Z,8.70
2018-06-20T03:39:44.832Z,9.57
2018-06-20T03:42:13.039Z,7.95
2018-06-20T03:44:41.194Z,8.48
2018-06-20T03:47:13.348Z,8.57
2018-06-20T03:49:41.540Z,9.37
2018-06-20T03:52:09.772Z,7.63
2018-06-20T03:54:38.020Z,9.63
2018-06-20T03:57:06.260Z,8.40
2018-06-20T03:59:38.316Z,8.08
2018-06-20T04:02:06.518Z,9.80
2018-06-20T04:04:34.739Z,8.40
2018-06-20T04:07:02.936Z,9.10
2018-06-20T04:09:31.516Z,7.70
2018-06-20T04:11:59.724Z,8.83
2018-06-20T04:14:31.424Z,7.92
2018-06-20T04:16:59.535Z,7.90
2018-06-20T04:19:28.803Z,8.73
2018-06-20T04:21:57.100Z,8.40
2018-06-20T04:24:25.382Z,8.85
2018-06-20T04:26:53.891Z,9.47
2018-06-20T04:29:22.879Z,8.50
2018-06-20T04:31:51.072Z,8.00
2018-06-20T04:34:19.230Z,7.47
2018-06-20T04:36:47.830Z,7.33
2018-06-20T04:39:16.096Z,7.83
2018-06-20T04:41:44.343Z,7.83
2018-06-20T04:44:12.607Z,7.20
2018-06-20T04:46:44.406Z,8.90
2018-06-20T04:49:12.648Z,8.80
2018-06-20T04:51:40.871Z,7.30
2018-06-20T04:54:09.048Z,6.90
2018-06-20T04:56:37.292Z,8.30
2018-06-20T04:59:05.508Z,6.20
2018-06-20T05:01:33.756Z,9.10
2018-06-20T05:04:01.954Z,7.15
2018-06-20T05:06:29.923Z,7.73
2018-06-20T05:08:58.218Z,7.93
2018-06-20T05:11:26.448Z,7.20
2018-06-20T05:13:54.687Z,8.10
2018-06-20T05:16:25.889Z,8.20
2018-06-20T05:18:54.776Z,8.80
2018-06-20T05:21:23.003Z,8.03
2018-06-20T05:23:51.224Z,8.60
2018-06-20T05:26:19.404Z,9.13
2018-06-20T05:28:48.083Z,8.63
2018-06-20T05:31:19.770Z,44.07
2018-06-20T05:33:48.596Z,8.38
2018-06-20T05:36:16.908Z,9.03
2018-06-20T05:38:45.171Z,9.08
2018-06-20T05:41:13.367Z,9.50
2018-06-20T05:43:41.663Z,8.45
2018-06-20T05:46:12.656Z,8.27
2018-06-20T05:48:40.951Z,7.77
2018-06-20T05:51:09.179Z,7.30
2018-06-20T05:53:38.584Z,7.13
2018-06-20T05:56:06.808Z,7.47
2018-06-20T05:58:35.060Z,7.03
2018-06-20T06:01:03.267Z,6.45
2018-06-20T06:03:31.458Z,7.33
2018-06-20T06:06:14.101Z,7.57
2018-06-20T06:08:42.681Z,7.17
2018-06-20T06:11:10.891Z,7.00
2018-06-20T06:13:39.845Z,7.10
2018-06-20T06:16:08.151Z,5.77
2018-06-20T06:18:39.919Z,7.00
2018-06-20T06:21:08.195Z,7.23
2018-06-20T06:23:36.411Z,7.30
2018-06-20T06:26:05.272Z,7.63
2018-06-20T06:28:33.536Z,7.72
2018-06-20T06:31:01.752Z,8.13
2018-06-20T06:33:30.285Z,8.00
2018-06-20T06:35:58.472Z,7.60
2018-06-20T06:38:27.373Z,6.70
2018-06-20T06:40:55.602Z,6.53
2018-06-20T06:43:23.847Z,9.37
2018-06-20T06:45:52.044Z,6.70
2018-06-20T06:48:23.267Z,7.37
2018-06-20T06:50:51.495Z,6.55
2018-06-20T06:53:20.260Z,7.85
2018-06-20T06:58:17.395Z,7.43
2018-06-20T07:00:45.601Z,7.80
2018-06-20T07:03:17.814Z,8.30
2018-06-20T07:05:46.016Z,7.00
2018-06-20T07:08:14.256Z,7.93
2018-06-20T07:10:42.488Z,7.30
2018-06-20T07:13:10.906Z,8.00
2018-06-20T07:15:39.840Z,6.97
2018-06-20T07:18:11.211Z,6.87
2018-06-20T07:20:39.424Z,6.53
2018-06-20T07:23:07.712Z,7.90
2018-06-20T07:25:35.913Z,7.20
2018-06-20T07:28:04.187Z,7.97
2018-06-20T07:30:32.465Z,6.37
2018-06-20T07:33:12.266Z,6.30
2018-06-20T07:35:40.594Z,6.43
2018-06-20T07:38:08.428Z,6.10
2018-06-20T07:40:36.659Z,5.13
2018-06-20T07:43:04.838Z,6.23
2018-06-20T07:45:34.181Z,6.30
2018-06-20T07:48:02.384Z,5.25
2018-06-20T07:50:31.536Z,5.33
2018-06-20T07:52:59.704Z,4.90
2018-06-20T07:55:27.660Z,4.70
2018-06-20T07:57:56.355Z,5.20
2018-06-20T08:00:30.108Z,5.00
2018-06-20T08:03:15.204Z,4.53
2018-06-20T08:05:48.731Z,4.97
2018-06-20T08:08:22.376Z,3.67
2018-06-20T08:10:56.844Z,4.43
2018-06-20T08:13:30.619Z,4.28
2018-06-20T08:16:04.208Z,5.33
2018-06-20T08:18:37.707Z,3.95
2018-06-20T08:21:06.086Z,3.77
2018-06-20T08:23:34.823Z,3.87
2018-06-20T08:26:03.005Z,3.90
2018-06-20T08:28:31.190Z,3.80
2018-06-20T08:30:59.552Z,4.03
2018-06-20T08:33:32.155Z,3.87
2018-06-20T08:36:00.355Z,2.80
2018-06-20T08:38:28.594Z,3.77
2018-06-20T08:40:56.572Z,3.03
2018-06-20T08:43:24.824Z,4.27
2018-06-20T08:45:53.076Z,3.30
2018-06-20T08:48:21.307Z,3.03
2018-06-20T08:50:49.523Z,3.07
2018-06-20T08:53:17.904Z,2.70
2018-06-20T08:55:46.153Z,2.93
2018-06-20T08:58:14.379Z,2.53
2018-06-20T09:00:48.135Z,2.47
2018-06-20T09:03:17.330Z,3.20
2018-06-20T09:05:55.356Z,2.60
2018-06-20T09:08:29.100Z,2.47
2018-06-20T09:11:02.768Z,2.00
2018-06-20T09:13:36.484Z,2.23
2018-06-20T09:16:10.796Z,2.40
2018-06-20T09:18:45.824Z,2.70
2018-06-20T09:21:14.036Z,3.62
2018-06-20T09:23:42.326Z,3.50
2018-06-20T09:26:10.664Z,2.72
2018-06-20T09:28:39.264Z,2.10
2018-06-20T09:31:07.568Z,2.50
2018-06-20T09:33:38.300Z,1.90
2018-06-20T09:36:06.703Z,2.85
2018-06-20T09:38:35.814Z,2.80
2018-06-20T09:41:03.819Z,2.40
2018-06-20T09:43:32.208Z,2.70
2018-06-20T09:46:00.555Z,2.65
2018-06-20T09:48:30.571Z,2.60
2018-06-20T09:50:59.636Z,3.33
2018-06-20T09:53:28.256Z,2.33
2018-06-20T09:55:56.875Z,2.80
2018-06-20T09:58:25.775Z,2.33
2018-06-20T10:00:59.500Z,2.60
2018-06-20T10:03:33.201Z,2.23
2018-06-20T10:06:14.444Z,2.97
2018-06-20T10:08:48.153Z,3.00
2018-06-20T10:11:22.517Z,2.47
2018-06-20T10:13:57.296Z,2.77
2018-06-20T10:16:26.115Z,2.50
2018-06-20T10:18:54.412Z,3.40
2018-06-20T10:21:27.341Z,2.85
2018-06-20T10:23:55.810Z,2.23
2018-06-20T10:26:24.728Z,3.30
2018-06-20T10:28:53.117Z,3.10
2018-06-20T10:31:23.343Z,2.87
2018-06-20T10:33:52.330Z,2.57
2018-06-20T10:36:23.726Z,2.47
2018-06-20T10:38:52.368Z,2.70
2018-06-20T10:41:21.131Z,2.00
2018-06-20T10:43:49.681Z,2.33
2018-06-20T10:46:23.697Z,2.55
2018-06-20T10:48:51.947Z,2.60
2018-06-20T10:51:24.586Z,2.37
2018-06-20T10:53:52.953Z,2.30
2018-06-20T10:56:26.809Z,2.90
2018-06-20T10:59:00.540Z,2.50
2018-06-20T11:01:34.295Z,2.30
2018-06-20T11:04:08.597Z,3.07
2018-06-20T11:06:43.213Z,2.33
2018-06-20T11:11:22.377Z,2.22
2018-06-20T11:13:50.869Z,2.58
2018-06-20T11:16:20.579Z,2.58
2018-06-20T11:18:51.620Z,2.73
2018-06-20T11:21:32.131Z,2.70
2018-06-20T11:24:00.951Z,2.20
2018-06-20T11:26:29.216Z,3.35
2018-06-20T11:28:58.067Z,2.70
2018-06-20T11:31:26.294Z,3.00
2018-06-20T11:33:54.570Z,2.83
2018-06-20T11:36:26.938Z,3.45
2018-06-20T11:38:55.103Z,2.60
2018-06-20T11:41:23.373Z,2.30
2018-06-20T11:43:51.605Z,2.20
2018-06-20T11:46:25.285Z,2.37
2018-06-20T11:48:54.222Z,2.40
2018-06-20T11:51:22.401Z,2.12
2018-06-20T11:53:54.952Z,3.07
2018-06-20T11:56:23.495Z,2.60
2018-06-20T11:58:57.010Z,2.20
2018-06-20T12:01:30.869Z,2.60
2018-06-20T12:04:04.599Z,2.23
2018-06-20T12:06:38.116Z,2.10
2018-06-20T12:11:13.885Z,2.70
2018-06-20T12:13:47.432Z,2.30
2018-06-20T12:16:26.915Z,2.30
2018-06-20T12:19:00.627Z,2.17
2018-06-20T12:21:34.262Z,1.90
2018-06-20T12:24:07.780Z,1.67
2018-06-20T12:26:42.010Z,2.00
2018-06-20T12:29:15.974Z,2.83
2018-06-20T12:31:49.658Z,1.87
2018-06-20T12:34:23.897Z,2.20
2018-06-20T12:36:58.217Z,2.05
2018-06-20T12:39:25.640Z,2.63
2018-06-20T12:41:59.270Z,2.95
2018-06-20T12:44:32.648Z,2.22
2018-06-20T12:47:10.539Z,2.20
2018-06-20T12:49:42.675Z,2.10
2018-06-20T12:52:10.875Z,2.87
2018-06-20T12:54:39.136Z,2.13
2018-06-20T12:57:07.353Z,2.60
2018-06-20T12:59:35.326Z,2.40
2018-06-20T13:02:03.576Z,2.20
2018-06-20T13:04:31.761Z,2.53
2018-06-20T13:07:00.261Z,3.15
2018-06-20T13:09:28.811Z,2.50
2018-06-20T13:11:57.100Z,2.57
2018-06-20T13:14:25.298Z,2.67
2018-06-20T13:16:53.602Z,2.37
2018-06-20T13:19:21.788Z,3.17
2018-06-20T13:21:50.899Z,2.63
2018-06-20T13:24:22.785Z,2.50
2018-06-20T13:26:51.382Z,1.98
2018-06-20T13:29:19.532Z,2.83
2018-06-20T13:31:53.236Z,2.25
2018-06-20T13:34:27.639Z,2.83
2018-06-20T13:37:01.164Z,1.67
2018-06-20T13:39:34.844Z,2.85
2018-06-20T13:42:05.031Z,2.23
2018-06-20T13:44:34.102Z,2.10
2018-06-20T13:47:07.805Z,2.72
2018-06-20T13:49:36.055Z,2.70
2018-06-20T13:52:04.412Z,2.60
2018-06-20T13:54:32.576Z,1.80
2018-06-20T13:57:00.794Z,2.20
2018-06-20T13:59:29.015Z,2.67
2018-06-20T14:01:57.244Z,2.67
2018-06-20T14:04:26.396Z,2.83
2018-06-20T14:06:55.211Z,2.70
2018-06-20T14:09:23.425Z,2.40
2018-06-20T14:11:51.626Z,2.40
2018-06-20T14:14:19.910Z,1.90
2018-06-20T14:16:48.168Z,2.23
2018-06-20T14:19:17.107Z,2.47
2018-06-20T14:21:46.381Z,2.85
2018-06-20T14:24:18.850Z,2.47
2018-06-20T14:26:47.093Z,2.27
2018-06-20T14:29:15.956Z,2.20
2018-06-20T14:31:49.563Z,2.70
2018-06-20T14:34:23.087Z,2.90
2018-06-20T14:36:57.371Z,2.25
2018-06-20T14:39:30.900Z,2.50
2018-06-20T14:42:04.481Z,2.00
2018-06-20T14:44:32.715Z,3.00
2018-06-20T14:47:00.987Z,2.47
2018-06-20T14:49:29.193Z,3.08
2018-06-20T14:51:57.398Z,2.70
2018-06-20T14:54:25.610Z,2.30
2018-06-20T14:56:54.080Z,2.33
2018-06-20T14:59:22.395Z,3.47
2018-06-20T15:01:50.662Z,2.35
2018-06-20T15:04:18.912Z,2.02
2018-06-20T15:06:47.110Z,2.43
2018-06-20T15:09:15.296Z,2.33
2018-06-20T15:11:47.063Z,2.10
2018-06-20T15:14:15.312Z,2.03
2018-06-20T15:16:49.008Z,2.60
2018-06-20T15:19:17.198Z,2.15
2018-06-20T15:21:45.421Z,2.57
2018-06-20T15:33:59.456Z,2.10
2018-06-20T15:36:34.932Z,2.08
2018-06-20T15:39:03.509Z,1.83
2018-06-20T15:41:31.759Z,2.00
2018-06-20T15:44:00.132Z,3.20
2018-06-20T15:46:31.232Z,2.20
2018-06-20T15:48:59.484Z,2.27
2018-06-20T15:51:27.972Z,2.37
2018-06-20T15:53:57.321Z,2.20
2018-06-20T15:56:29.648Z,2.70
2018-06-20T15:58:58.013Z,2.13
2018-06-20T16:01:26.395Z,2.30
2018-06-20T16:03:54.752Z,2.83
2018-06-20T16:06:23.665Z,2.55
2018-06-20T16:08:57.907Z,2.70
2018-06-20T16:11:30.571Z,2.33
2018-06-20T16:13:59.137Z,2.57
2018-06-20T16:16:27.478Z,2.35
2018-06-20T16:19:02.124Z,2.37
2018-06-20T16:21:38.356Z,2.30
2018-06-20T16:24:11.999Z,2.57
2018-06-20T16:26:49.765Z,2.20
2018-06-20T16:29:23.408Z,2.37
2018-06-20T16:31:51.678Z,2.37
2018-06-20T16:34:20.680Z,2.37
2018-06-20T16:36:49.376Z,2.27
2018-06-20T16:39:17.574Z,2.33
2018-06-20T16:41:49.758Z,2.20
2018-06-20T16:44:17.956Z,2.20
2018-06-20T16:46:46.464Z,2.55
2018-06-20T16:49:14.652Z,4.60
2018-06-20T16:51:42.896Z,2.47
2018-06-20T16:54:11.408Z,1.95
2018-06-20T16:56:39.622Z,3.27
2018-06-20T16:59:08.048Z,2.47
2018-06-20T17:01:41.883Z,2.10
2018-06-20T17:04:10.108Z,2.60
2018-06-20T17:06:39.320Z,2.62
2018-06-20T17:09:08.629Z,2.20
2018-06-20T17:11:36.869Z,3.08
2018-06-20T17:14:10.379Z,2.40
2018-06-20T17:16:44.083Z,2.40
2018-06-20T17:19:17.656Z,2.70
2018-06-20T17:21:51.387Z,2.15
2018-06-20T17:24:25.648Z,2.60
2018-06-20T17:26:53.925Z,2.40
2018-06-20T17:29:22.128Z,2.50
2018-06-20T17:31:50.878Z,2.07
2018-06-20T17:34:19.321Z,2.13
2018-06-20T17:36:47.844Z,2.80
2018-06-20T17:39:16.080Z,2.20
2018-06-20T17:41:45.953Z,2.30
2018-06-20T17:44:14.253Z,2.00
2018-06-20T17:46:42.475Z,2.60
2018-06-20T17:49:13.512Z,1.87
2018-06-20T17:51:41.712Z,2.20
2018-06-20T17:54:09.940Z,2.43
2018-06-20T17:56:38.287Z,2.37
2018-06-20T17:59:09.593Z,1.80
2018-06-20T18:01:37.771Z,2.07
2018-06-20T18:04:07.321Z,2.54
2018-06-20T18:06:41.635Z,2.37
2018-06-20T18:09:15.172Z,2.33
2018-06-20T18:13:59.747Z,2.30
2018-06-20T18:16:33.525Z,1.70
2018-06-20T18:19:02.760Z,2.45
2018-06-20T18:21:31.928Z,2.45
2018-06-20T18:24:00.282Z,4.10
2018-06-20T18:26:28.616Z,2.00
2018-06-20T18:28:59.847Z,2.23
2018-06-20T18:31:28.888Z,2.67
2018-06-20T18:33:57.653Z,2.25
2018-06-20T18:36:26.937Z,2.10
2018-06-20T18:38:55.219Z,2.67
2018-06-20T18:41:23.443Z,2.50
2018-06-20T18:43:55.193Z,2.40
2018-06-20T18:46:23.469Z,2.77
2018-06-20T18:48:52.928Z,2.37
2018-06-20T18:51:21.312Z,2.93
2018-06-20T18:53:49.677Z,2.80
2018-06-20T18:56:18.433Z,2.60
2018-06-20T18:58:56.404Z,3.13
2018-06-20T19:01:30.153Z,3.02
2018-06-20T19:04:04.836Z,3.00
2018-06-20T19:06:38.521Z,3.22
2018-06-20T19:09:16.672Z,3.90
2018-06-20T19:11:45.454Z,3.50
2018-06-20T19:14:18.387Z,3.00
2018-06-20T19:16:48.601Z,3.90
2018-06-20T19:19:18.769Z,3.33
2018-06-20T19:21:46.983Z,4.00
2018-06-20T19:24:15.317Z,3.50
2018-06-20T19:26:46.353Z,3.58
2018-06-20T19:29:18.543Z,3.23
2018-06-20T19:31:46.932Z,3.50
2018-06-20T19:34:15.508Z,3.18
2018-06-20T19:36:44.378Z,4.78
2018-06-20T19:39:18.028Z,3.67
2018-06-20T19:41:46.408Z,4.03
2018-06-20T19:44:20.936Z,3.52
2018-06-20T19:46:49.243Z,3.13
2018-06-20T19:49:18.459Z,3.27
2018-06-20T19:51:46.768Z,3.77
2018-06-20T19:54:15.005Z,3.97
2018-06-20T19:56:43.312Z,3.50
2018-06-20T19:59:11.691Z,3.83
2018-06-20T20:01:40.009Z,3.75
2018-06-20T20:04:08.399Z,4.13
2018-06-20T20:06:36.760Z,3.73
2018-06-20T20:09:06.880Z,4.23
2018-06-20T20:11:36.381Z,3.10
2018-06-20T20:14:06.711Z,4.10
2018-06-20T20:16:36.256Z,4.20
2018-06-20T20:19:04.557Z,3.70
2018-06-20T20:21:34.364Z,4.10
2018-06-20T20:24:02.666Z,3.40
2018-06-20T20:26:32.560Z,3.90
2018-06-20T20:29:02.759Z,3.70
2018-06-20T20:31:31.236Z,4.50
2018-06-20T20:34:00.525Z,3.63
2018-06-20T20:36:29.449Z,5.20
2018-06-20T20:38:57.757Z,3.98
2018-06-20T20:41:26.033Z,4.53
2018-06-20T20:43:54.284Z,3.93
2018-06-20T20:46:33.987Z,4.12
2018-06-20T20:49:02.163Z,4.45
2018-06-20T20:51:30.400Z,4.37
2018-06-20T20:53:58.995Z,3.80
2018-06-20T20:56:27.831Z,4.10
2018-06-20T20:58:56.128Z,4.53
2018-06-20T21:01:24.268Z,4.33
2018-06-20T21:03:56.631Z,4.78
2018-06-20T21:06:24.946Z,4.50
2018-06-20T21:08:54.023Z,5.28
2018-06-20T21:11:22.447Z,5.78
2018-06-20T21:13:50.700Z,4.40
2018-06-20T21:16:22.744Z,4.00
2018-06-20T21:18:58.891Z,4.77
2018-06-20T21:21:27.139Z,3.97
2018-06-20T21:23:55.340Z,5.53
2018-06-20T21:26:23.892Z,4.40
2018-06-20T21:28:52.217Z,4.80
2018-06-20T21:31:24.473Z,4.77
2018-06-20T21:33:52.755Z,4.50
2018-06-20T21:36:21.130Z,5.67
2018-06-20T21:38:49.387Z,5.17
2018-06-20T21:41:17.383Z,5.20
2018-06-20T21:43:45.636Z,5.40
2018-06-20T21:46:13.924Z,5.47
2018-06-20T21:48:47.150Z,4.90
2018-06-20T21:51:16.595Z,5.20
2018-06-20T21:53:45.775Z,4.37
2018-06-20T21:56:14.309Z,5.53
2018-06-20T21:58:42.564Z,5.47
2018-06-20T22:01:11.496Z,5.60
2018-06-20T22:03:40.518Z,5.00
2018-06-20T22:06:08.876Z,5.73
2018-06-20T22:08:37.052Z,6.40
2018-06-20T22:11:05.668Z,5.53
2018-06-20T22:13:33.859Z,5.80
2018-06-20T22:16:02.083Z,5.97
2018-06-20T22:18:30.319Z,6.00
2018-06-20T22:20:58.739Z,5.62
2018-06-20T22:23:26.979Z,5.50
2018-06-20T22:25:55.006Z,5.67
2018-06-20T22:28:23.208Z,5.97
2018-06-20T22:30:51.743Z,7.00
2018-06-20T22:33:20.596Z,5.75
2018-06-20T22:35:49.684Z,5.73
2018-06-20T22:38:17.973Z,6.20
2018-06-20T22:40:46.135Z,6.63
2018-06-20T22:43:14.696Z,5.85
2018-06-20T22:45:43.241Z,4.80
2018-06-20T22:48:14.743Z,5.40
2018-06-20T22:50:43.031Z,5.93
2018-06-20T22:53:12.217Z,5.45
2018-06-20T22:55:40.800Z,6.80
2018-06-20T22:58:10.625Z,6.40
2018-06-20T23:00:38.888Z,5.90
2018-06-20T23:03:07.088Z,6.63
2018-06-20T23:05:35.342Z,6.40
2018-06-20T23:08:04.902Z,6.43
2018-06-20T23:10:33.132Z,6.03
2018-06-20T23:13:01.348Z,6.80
2018-06-20T23:15:29.764Z,5.65
2018-06-20T23:17:58.371Z,6.00
2018-06-20T23:20:30.146Z,6.27
2018-06-20T23:22:58.402Z,5.75
2018-06-20T23:25:26.667Z,6.23
2018-06-20T23:27:54.843Z,5.63
2018-06-20T23:30:23.119Z,6.28
2018-06-20T23:32:51.321Z,6.73
2018-06-20T23:35:19.618Z,5.62
2018-06-20T23:37:47.832Z,7.10
2018-06-20T23:40:16.013Z,6.20
2018-06-20T23:42:50.999Z,6.30
2018-06-20T23:45:19.233Z,5.83
2018-06-20T23:47:47.406Z,6.53
2018-06-20T23:50:18.856Z,7.15
2018-06-20T23:52:47.024Z,7.50
2018-06-20T23:55:15.057Z,6.47
2018-06-20T23:57:43.272Z,7.10
